createdAt,value
2023-02-09T00:03:22.757Z,95.20
2023-02-09T00:08:25.364Z,76.33
2023-02-09T00:13:28.271Z,78.97
2023-02-09T00:18:33.929Z,85.30
2023-02-09T00:23:39.123Z,86.07
2023-02-09T00:28:41.652Z,95.90
2023-02-09T00:33:44.240Z,95.37
2023-02-09T00:38:46.791Z,95.50
2023-02-09T00:43:49.218Z,85.60
2023-02-09T00:48:51.679Z,90.90
2023-02-09T00:53:54.188Z,83.07
2023-02-09T00:58:56.713Z,69.00
2023-02-09T01:04:00.808Z,58.93
2023-02-09T01:09:03.689Z,81.47
2023-02-09T01:14:07.364Z,73.53
2023-02-09T01:19:13.551Z,68.10
2023-02-09T01:24:16.512Z,73.43
2023-02-09T01:29:20.223Z,78.10
2023-02-09T01:34:23.607Z,79.90
2023-02-09T01:39:26.222Z,80.13
2023-02-09T01:44:31.498Z,80.60
2023-02-09T01:49:34.034Z,76.87
2023-02-09T01:54:44.497Z,76.93
2023-02-09T01:59:51.028Z,76.27
2023-02-09T02:04:54.100Z,74.20
2023-02-09T02:09:59.006Z,61.23
2023-02-09T02:15:01.625Z,72.10
2023-02-09T02:20:29.016Z,72.33
2023-02-09T02:26:17.195Z,69.33
2023-02-09T02:31:41.620Z,46.73
2023-02-09T02:37:02.583Z,77.87
2023-02-09T02:42:39.809Z,75.00
2023-02-09T02:47:56.622Z,77.23
2023-02-09T02:53:03.726Z,69.47
2023-02-09T02:58:09.455Z,73.57
2023-02-09T03:03:31.267Z,67.33
2023-02-09T03:08:51.077Z,77.07
2023-02-09T03:13:59.208Z,66.47
2023-02-09T03:19:41.696Z,75.17
2023-02-09T03:24:52.890Z,64.30
2023-02-09T03:30:01.044Z,75.07
2023-02-09T03:35:04.398Z,73.87
2023-02-09T03:40:07.463Z,71.33
2023-02-09T03:45:10.004Z,67.20
2023-02-09T03:50:12.573Z,67.90
2023-02-09T03:55:15.200Z,68.87
2023-02-09T04:00:18.027Z,71.53
2023-02-09T04:05:23.085Z,67.90
2023-02-09T04:10:26.047Z,71.33
2023-02-09T04:15:28.598Z,71.97
2023-02-09T04:20:31.122Z,72.03
2023-02-09T04:25:33.757Z,69.50
2023-02-09T04:30:36.398Z,70.13
2023-02-09T04:35:38.989Z,64.37
2023-02-09T04:40:41.509Z,73.63
2023-02-09T04:45:44.143Z,65.37
2023-02-09T04:50:47.374Z,63.77
2023-02-09T04:55:51.324Z,69.93
2023-02-09T05:00:55.764Z,73.77
2023-02-09T05:06:00.971Z,72.57
2023-02-09T05:11:03.555Z,72.13
2023-02-09T05:16:13.415Z,70.47
2023-02-09T05:21:16.100Z,91.83
2023-02-09T05:26:18.714Z,121.13
2023-02-09T05:31:21.398Z,105.97
2023-02-09T05:36:23.894Z,110.63
2023-02-09T05:41:45.059Z,88.57
2023-02-09T05:46:47.527Z,67.00
2023-02-09T05:51:50.182Z,73.97
2023-02-09T05:56:52.859Z,63.37
2023-02-09T06:01:55.606Z,78.73
2023-02-09T06:06:58.559Z,74.97
2023-02-09T06:12:01.036Z,113.77
2023-02-09T06:17:03.604Z,91.17
2023-02-09T06:22:06.179Z,110.73
2023-02-09T06:27:08.736Z,105.27
2023-02-09T06:32:11.548Z,108.37
2023-02-09T06:37:14.270Z,109.90
2023-02-09T06:42:16.863Z,121.20
2023-02-09T06:47:19.449Z,115.77
2023-02-09T06:52:21.964Z,99.47
2023-02-09T06:57:24.539Z,90.83
2023-02-09T07:02:27.101Z,74.33
2023-02-09T07:07:29.709Z,70.83
2023-02-09T07:12:32.439Z,62.33
2023-02-09T07:17:35.015Z,76.23
2023-02-09T07:22:37.608Z,88.43
2023-02-09T07:27:44.420Z,69.60
2023-02-09T07:32:46.964Z,72.63
2023-02-09T07:37:49.519Z,76.37
2023-02-09T07:42:52.908Z,67.07
2023-02-09T07:47:55.374Z,74.97
2023-02-09T07:52:58.197Z,87.77
2023-02-09T07:58:01.110Z,108.37
2023-02-09T08:03:05.656Z,98.80
2023-02-09T08:08:08.657Z,100.63
2023-02-09T08:13:12.437Z,100.90
2023-02-09T08:18:25.495Z,102.77
2023-02-09T08:23:31.962Z,98.40
2023-02-09T08:28:43.685Z,93.83
2023-02-09T08:33:48.554Z,94.97
2023-02-09T08:38:51.223Z,92.60
2023-02-09T08:43:53.816Z,90.70
2023-02-09T08:48:56.393Z,99.77
2023-02-09T08:53:58.944Z,92.97
2023-02-09T08:59:01.509Z,92.90
2023-02-09T09:04:04.135Z,67.23
2023-02-09T09:09:06.918Z,32.37
2023-02-09T09:14:09.575Z,43.23
2023-02-09T09:19:12.106Z,56.50
2023-02-09T09:24:16.216Z,62.13
2023-02-09T09:29:18.822Z,72.43
2023-02-09T09:34:21.349Z,48.33
2023-02-09T09:39:25.659Z,68.43
2023-02-09T09:44:34.678Z,56.33
2023-02-09T09:49:37.974Z,49.43
2023-02-09T09:54:41.766Z,54.67
2023-02-09T09:59:44.500Z,44.87
2023-02-09T10:04:48.623Z,47.43
2023-02-09T10:10:03.463Z,44.43
2023-02-09T10:15:29.624Z,41.00
2023-02-09T10:20:44.490Z,40.67
2023-02-09T10:25:54.454Z,37.57
2023-02-09T10:31:00.466Z,38.10
2023-02-09T10:36:06.186Z,38.07
2023-02-09T10:41:10.565Z,33.80
2023-02-09T10:46:19.124Z,38.30
2023-02-09T10:51:30.108Z,32.33
2023-02-09T10:56:43.570Z,35.80
2023-02-09T11:01:58.467Z,35.63
2023-02-09T11:07:19.372Z,39.00
2023-02-09T11:12:23.063Z,29.17
2023-02-09T11:17:48.036Z,37.30
2023-02-09T11:22:53.235Z,39.50
2023-02-09T11:27:58.777Z,45.07
2023-02-09T11:33:29.280Z,35.57
2023-02-09T11:38:49.691Z,32.67
2023-02-09T11:43:55.321Z,37.80
2023-02-09T11:49:06.008Z,42.73
2023-02-09T11:54:23.076Z,34.17
2023-02-09T11:59:31.714Z,34.27
2023-02-09T12:04:40.213Z,36.63
2023-02-09T12:09:55.754Z,30.10
2023-02-09T12:15:20.850Z,32.27
2023-02-09T12:20:38.725Z,39.13
2023-02-09T12:25:53.265Z,35.60
2023-02-09T12:30:58.724Z,34.93
2023-02-09T12:36:01.293Z,30.43
2023-02-09T12:41:06.804Z,29.47
2023-02-09T12:46:48.495Z,31.03
2023-02-09T12:51:50.966Z,25.80
2023-02-09T12:56:53.662Z,29.73
2023-02-09T13:02:08.008Z,33.33
2023-02-09T13:07:25.309Z,32.83
2023-02-09T13:12:38.088Z,30.07
2023-02-09T13:18:00.852Z,34.47
2023-02-09T13:23:35.968Z,23.37
2023-02-09T13:28:38.545Z,27.77
2023-02-09T13:33:48.297Z,34.77
2023-02-09T13:38:51.321Z,33.63
2023-02-09T13:43:53.816Z,30.73
2023-02-09T13:49:13.264Z,31.93
2023-02-09T13:54:20.495Z,28.40
2023-02-09T13:59:23.152Z,27.17
2023-02-09T14:04:34.682Z,28.73
2023-02-09T14:09:48.828Z,26.87
2023-02-09T14:15:18.648Z,33.10
2023-02-09T14:20:24.635Z,37.20
2023-02-09T14:25:28.786Z,34.50
2023-02-09T14:30:34.289Z,31.53
2023-02-09T14:35:47.598Z,32.97
2023-02-09T14:40:50.500Z,25.53
2023-02-09T14:46:01.232Z,28.50
2023-02-09T14:51:17.554Z,23.23
2023-02-09T14:56:35.472Z,26.53
2023-02-09T15:01:37.972Z,25.93
2023-02-09T15:06:42.789Z,27.33
2023-02-09T15:12:04.012Z,35.30
2023-02-09T15:17:18.554Z,36.90
2023-02-09T15:22:22.446Z,40.90
2023-02-09T15:27:24.957Z,55.97
2023-02-09T15:32:28.184Z,53.37
2023-02-09T15:37:38.473Z,45.00
2023-02-09T15:43:00.387Z,46.83
2023-02-09T15:48:03.833Z,53.43
2023-02-09T15:53:10.812Z,64.43
2023-02-09T15:58:15.849Z,62.47
2023-02-09T16:03:20.369Z,65.67
2023-02-09T16:08:26.092Z,77.93
2023-02-09T16:13:28.770Z,82.60
2023-02-09T16:18:31.353Z,72.17
2023-02-09T16:23:35.152Z,64.63
2023-02-09T16:28:37.706Z,60.37
2023-02-09T16:33:41.672Z,116.20
2023-02-09T16:38:44.857Z,134.30
2023-02-09T16:43:47.399Z,140.33
2023-02-09T16:48:50.336Z,37.43
2023-02-09T16:53:53.123Z,41.87
2023-02-09T16:58:55.615Z,58.20
2023-02-09T17:03:58.287Z,71.07
2023-02-09T17:09:00.808Z,90.30
2023-02-09T17:14:03.411Z,88.90
2023-02-09T17:19:12.876Z,96.20
2023-02-09T17:24:17.313Z,108.30
2023-02-09T17:29:22.014Z,104.47
2023-02-09T17:34:28.356Z,90.93
2023-02-09T17:39:31.037Z,104.33
2023-02-09T17:44:45.670Z,104.93
2023-02-09T17:49:49.170Z,112.67
2023-02-09T17:54:51.602Z,110.37
2023-02-09T17:59:54.142Z,112.53
2023-02-09T18:04:56.692Z,114.23
2023-02-09T18:09:59.216Z,112.53
2023-02-09T18:15:01.749Z,70.00
2023-02-09T18:20:04.959Z,102.80
2023-02-09T18:25:11.527Z,86.00
2023-02-09T18:30:14.509Z,68.00
2023-02-09T18:35:22.270Z,72.83
2023-02-09T18:40:25.363Z,55.77
2023-02-09T18:45:28.540Z,61.83
2023-02-09T18:50:33.574Z,53.80
2023-02-09T18:55:36.176Z,59.03
2023-02-09T19:00:38.659Z,55.97
2023-02-09T19:05:41.567Z,49.43
2023-02-09T19:10:44.430Z,46.53
2023-02-09T19:15:47.178Z,44.90
2023-02-09T19:20:49.868Z,51.00
2023-02-09T19:26:03.304Z,57.00
2023-02-09T19:31:12.721Z,49.03
2023-02-09T19:36:15.352Z,52.13
2023-02-09T19:41:17.977Z,49.10
2023-02-09T19:46:20.665Z,44.57
2023-02-09T19:51:23.808Z,45.17
2023-02-09T19:56:26.279Z,47.97
2023-02-09T20:01:31.370Z,41.13
2023-02-09T20:06:34.155Z,44.00
2023-02-09T20:11:36.793Z,37.73
2023-02-09T20:16:40.190Z,40.37
2023-02-09T20:21:42.907Z,38.77
2023-02-09T20:26:46.690Z,36.53
2023-02-09T20:31:49.645Z,35.77
2023-02-09T20:36:52.230Z,38.00
2023-02-09T20:42:15.506Z,38.27
2023-02-09T20:47:18.395Z,41.67
2023-02-09T20:52:20.851Z,39.60
2023-02-09T20:57:32.105Z,37.27
2023-02-09T21:02:34.629Z,35.57
2023-02-09T21:07:37.264Z,41.70
2023-02-09T21:12:41.089Z,37.13
2023-02-09T21:17:48.806Z,39.50
2023-02-09T21:22:51.746Z,37.30
2023-02-09T21:27:55.975Z,42.70
2023-02-09T21:33:00.472Z,39.13
2023-02-09T21:38:03.319Z,35.17
2023-02-09T21:43:05.951Z,36.03
2023-02-09T21:48:08.480Z,32.17
2023-02-09T21:53:10.974Z,37.20
2023-02-09T21:58:13.452Z,31.97
2023-02-09T22:03:15.989Z,32.30
2023-02-09T22:08:18.630Z,34.03
2023-02-09T22:13:21.308Z,28.27
2023-02-09T22:18:24.321Z,38.20
2023-02-09T22:23:29.689Z,38.03
2023-02-09T22:28:36.019Z,37.57
2023-02-09T22:33:39.563Z,31.80
2023-02-09T22:38:42.373Z,29.73
2023-02-09T22:43:45.354Z,35.17
2023-02-09T22:48:56.492Z,37.43
2023-02-09T22:54:00.184Z,34.43
2023-02-09T22:59:02.719Z,35.90
2023-02-09T23:04:05.400Z,35.43
2023-02-09T23:09:08.740Z,29.50
2023-02-09T23:14:12.638Z,32.77
2023-02-09T23:19:19.972Z,30.90
2023-02-09T23:24:22.705Z,30.47
2023-02-09T23:29:25.212Z,33.27
2023-02-09T23:34:27.811Z,35.63
2023-02-09T23:39:30.482Z,32.73
2023-02-09T23:44:33.164Z,30.03
2023-02-09T23:49:35.735Z,28.97
2023-02-09T23:54:38.222Z,26.90
2023-02-09T23:59:40.802Z,34.57
